createdAt,value
2022-12-17T00:00:49.984Z,11.87
2022-12-17T00:03:17.485Z,12.23
2022-12-17T00:05:44.868Z,11.37
2022-12-17T00:08:12.115Z,11.13
2022-12-17T00:10:41.103Z,10.77
2022-12-17T00:13:18.191Z,10.40
2022-12-17T00:15:50.856Z,10.80
2022-12-17T00:18:22.014Z,10.37
2022-12-17T00:20:53.446Z,10.20
2022-12-17T00:23:21.025Z,10.87
2022-12-17T00:25:51.975Z,8.80
2022-12-17T00:28:19.231Z,9.53
2022-12-17T00:30:51.062Z,10.03
2022-12-17T00:33:19.580Z,8.90
2022-12-17T00:35:51.336Z,9.20
2022-12-17T00:38:19.317Z,9.10
2022-12-17T00:40:52.124Z,9.10
2022-12-17T00:43:19.530Z,9.83
2022-12-17T00:45:48.973Z,8.20
2022-12-17T00:48:35.164Z,9.43
2022-12-17T00:51:02.756Z,8.47
2022-12-17T00:53:30.062Z,9.13
2022-12-17T00:55:58.618Z,8.83
2022-12-17T00:58:31.726Z,8.50
2022-12-17T01:01:17.837Z,8.63
2022-12-17T01:03:57.758Z,8.57
2022-12-17T01:06:25.082Z,8.40
2022-12-17T01:08:52.328Z,9.17
2022-12-17T01:11:20.906Z,9.20
2022-12-17T01:13:48.239Z,9.93
2022-12-17T01:16:15.780Z,8.97
2022-12-17T01:18:43.234Z,10.83
2022-12-17T01:21:10.450Z,11.23
2022-12-17T01:23:38.386Z,10.33
2022-12-17T01:26:06.060Z,9.37
2022-12-17T01:28:34.710Z,10.93
2022-12-17T01:31:01.956Z,11.17
2022-12-17T01:33:29.272Z,9.83
2022-12-17T01:35:57.001Z,10.70
2022-12-17T01:38:30.412Z,9.50
2022-12-17T01:40:57.655Z,10.30
2022-12-17T01:43:39.153Z,10.03
2022-12-17T01:46:11.813Z,9.90
2022-12-17T01:48:57.834Z,10.27
2022-12-17T01:51:32.485Z,9.93
2022-12-17T01:54:07.024Z,8.73
2022-12-17T01:56:34.786Z,8.83
2022-12-17T01:59:03.683Z,9.27
2022-12-17T02:01:31.064Z,9.33
2022-12-17T02:03:58.566Z,9.07
2022-12-17T02:06:26.908Z,9.43
2022-12-17T02:09:01.476Z,9.17
2022-12-17T02:11:36.640Z,9.10
2022-12-17T02:14:09.637Z,8.87
2022-12-17T02:16:39.299Z,9.03
2022-12-17T02:19:12.362Z,9.33
2022-12-17T02:21:40.199Z,8.77
2022-12-17T02:27:42.118Z,8.30
2022-12-17T02:30:10.376Z,8.87
2022-12-17T02:32:39.465Z,8.40
2022-12-17T02:35:11.010Z,8.63
2022-12-17T02:37:38.870Z,8.70
2022-12-17T02:40:06.692Z,8.93
2022-12-17T02:43:00.151Z,9.50
2022-12-17T02:45:30.979Z,8.53
2022-12-17T02:47:58.685Z,8.33
2022-12-17T02:50:26.056Z,9.53
2022-12-17T02:59:26.002Z,8.63
2022-12-17T03:01:55.371Z,8.23
2022-12-17T03:04:24.177Z,8.30
2022-12-17T03:06:51.411Z,9.27
2022-12-17T03:09:18.716Z,8.57
2022-12-17T03:11:58.308Z,8.70
2022-12-17T03:14:25.530Z,8.73
2022-12-17T03:16:52.905Z,8.53
2022-12-17T03:19:23.074Z,9.40
2022-12-17T03:21:56.472Z,9.10
2022-12-17T03:24:52.183Z,9.37
2022-12-17T03:27:35.393Z,7.77
2022-12-17T03:30:02.892Z,9.33
2022-12-17T03:32:30.091Z,9.17
2022-12-17T03:34:58.710Z,8.17
2022-12-17T03:37:26.051Z,9.83
2022-12-17T03:39:53.351Z,10.30
2022-12-17T03:42:20.594Z,9.30
2022-12-17T03:44:47.809Z,9.50
2022-12-17T03:47:15.076Z,10.03
2022-12-17T03:49:42.307Z,9.03
2022-12-17T03:52:10.914Z,9.03
2022-12-17T03:54:38.163Z,8.37
2022-12-17T03:57:20.578Z,9.50
2022-12-17T03:59:47.821Z,10.60
2022-12-17T04:02:15.147Z,8.67
2022-12-17T04:04:42.599Z,10.73
2022-12-17T04:07:32.288Z,10.80
2022-12-17T04:13:20.728Z,10.10
2022-12-17T04:15:48.182Z,11.03
2022-12-17T04:18:15.427Z,11.40
2022-12-17T04:20:42.665Z,10.27
2022-12-17T04:23:09.884Z,10.50
2022-12-17T04:25:49.290Z,10.47
2022-12-17T04:28:16.564Z,9.97
2022-12-17T04:30:45.450Z,10.63
2022-12-17T04:33:12.696Z,10.87
2022-12-17T04:35:52.439Z,10.20
2022-12-17T04:38:53.873Z,10.57
2022-12-17T04:41:35.556Z,10.00
2022-12-17T04:44:03.635Z,11.30
2022-12-17T04:46:32.513Z,11.27
2022-12-17T04:49:00.030Z,11.93
2022-12-17T04:51:27.442Z,10.67
2022-12-17T04:53:54.667Z,11.40
2022-12-17T04:56:25.195Z,11.00
2022-12-17T04:58:52.643Z,11.10
2022-12-17T05:01:20.751Z,9.47
2022-12-17T05:03:49.459Z,8.57
2022-12-17T05:09:32.718Z,12.03
2022-12-17T05:12:00.220Z,12.27
2022-12-17T05:14:27.442Z,11.53
2022-12-17T05:16:56.195Z,12.73
2022-12-17T05:19:25.183Z,11.23
2022-12-17T05:21:52.392Z,9.23
2022-12-17T05:24:19.683Z,8.70
2022-12-17T05:26:46.902Z,11.87
2022-12-17T05:29:16.151Z,12.40
2022-12-17T05:31:43.704Z,12.77
2022-12-17T05:34:10.949Z,12.80
2022-12-17T05:36:39.489Z,14.03
2022-12-17T05:39:06.930Z,14.30
2022-12-17T05:41:34.674Z,12.30
2022-12-17T05:44:02.043Z,11.83
2022-12-17T05:46:29.836Z,12.43
2022-12-17T05:48:57.195Z,14.37
2022-12-17T05:51:38.861Z,13.87
2022-12-17T05:54:20.401Z,13.40
2022-12-17T05:56:47.724Z,14.33
2022-12-17T05:59:14.912Z,13.70
2022-12-17T06:02:05.346Z,8.60
2022-12-17T06:04:32.805Z,12.87
2022-12-17T06:07:01.216Z,13.87
2022-12-17T06:09:29.853Z,14.47
2022-12-17T06:12:02.424Z,13.90
2022-12-17T06:14:30.165Z,10.50
2022-12-17T06:17:02.621Z,14.70
2022-12-17T06:19:30.061Z,14.83
2022-12-17T06:21:57.487Z,14.80
2022-12-17T06:24:32.014Z,15.03
2022-12-17T06:27:08.369Z,13.67
2022-12-17T06:29:35.552Z,12.10
2022-12-17T06:32:21.340Z,11.17
2022-12-17T06:34:48.679Z,14.77
2022-12-17T06:37:17.107Z,13.77
2022-12-17T06:39:51.391Z,13.73
2022-12-17T06:42:19.028Z,11.87
2022-12-17T06:44:52.027Z,14.70
2022-12-17T06:47:19.674Z,15.23
2022-12-17T06:49:46.958Z,12.97
2022-12-17T06:52:14.261Z,18.07
2022-12-17T06:54:55.270Z,14.97
2022-12-17T06:57:22.653Z,14.57
2022-12-17T06:59:49.899Z,13.73
2022-12-17T07:02:18.243Z,16.07
2022-12-17T07:04:54.723Z,16.40
2022-12-17T07:07:43.935Z,15.30
2022-12-17T07:10:16.236Z,15.53
2022-12-17T07:12:43.508Z,14.20
2022-12-17T07:15:10.931Z,17.23
2022-12-17T07:17:38.194Z,15.70
2022-12-17T07:20:06.028Z,14.43
2022-12-17T07:22:35.846Z,15.07
2022-12-17T07:25:19.588Z,15.87
2022-12-17T07:27:53.163Z,15.83
2022-12-17T07:30:20.416Z,15.00
2022-12-17T07:32:47.630Z,16.23
2022-12-17T07:35:34.996Z,15.80
2022-12-17T07:38:28.967Z,16.93
2022-12-17T07:40:59.123Z,17.80
2022-12-17T07:43:26.341Z,17.10
2022-12-17T07:45:53.667Z,15.57
2022-12-17T07:48:20.962Z,17.27
2022-12-17T07:50:49.322Z,16.03
2022-12-17T07:53:29.242Z,17.33
2022-12-17T07:55:58.519Z,16.83
2022-12-17T07:58:25.776Z,15.27
2022-12-17T08:00:53.128Z,14.43
2022-12-17T08:06:14.244Z,14.03
2022-12-17T08:08:53.664Z,15.17
2022-12-17T08:11:23.397Z,13.27
2022-12-17T08:13:55.909Z,14.13
2022-12-17T08:16:23.319Z,15.90
2022-12-17T08:18:59.947Z,15.23
2022-12-17T08:21:33.456Z,14.77
2022-12-17T08:24:00.964Z,15.87
2022-12-17T08:26:30.902Z,15.17
2022-12-17T08:28:58.130Z,15.70
2022-12-17T08:31:25.418Z,11.30
2022-12-17T08:33:53.867Z,13.50
2022-12-17T08:36:22.510Z,15.73
2022-12-17T08:38:49.839Z,10.10
2022-12-17T08:41:17.094Z,12.37
2022-12-17T08:43:45.906Z,16.00
2022-12-17T08:46:13.801Z,15.50
2022-12-17T08:48:41.170Z,18.20
2022-12-17T08:51:11.350Z,16.13
2022-12-17T08:56:27.888Z,16.67
2022-12-17T08:58:59.267Z,14.63
2022-12-17T09:01:26.915Z,15.50
2022-12-17T09:03:54.205Z,15.50
2022-12-17T09:06:21.429Z,14.90
2022-12-17T09:15:35.405Z,10.77
2022-12-17T09:18:02.643Z,15.87
2022-12-17T09:20:29.924Z,16.87
2022-12-17T09:22:57.326Z,17.30
2022-12-17T09:25:24.680Z,15.40
2022-12-17T09:28:04.440Z,17.77
2022-12-17T09:30:31.717Z,17.50
2022-12-17T09:33:00.359Z,16.20
2022-12-17T09:35:27.622Z,10.73
2022-12-17T09:38:04.380Z,15.93
2022-12-17T09:40:53.404Z,14.17
2022-12-17T09:43:40.810Z,14.87
2022-12-17T09:46:13.208Z,16.87
2022-12-17T09:48:47.530Z,16.73
2022-12-17T09:51:20.572Z,17.03
2022-12-17T09:53:49.521Z,14.67
2022-12-17T09:56:22.087Z,16.83
2022-12-17T09:58:49.565Z,16.10
2022-12-17T10:01:18.128Z,16.80
2022-12-17T10:03:47.920Z,16.07
2022-12-17T10:06:22.624Z,17.77
2022-12-17T10:08:51.762Z,17.60
2022-12-17T10:11:20.549Z,16.33
2022-12-17T10:13:53.187Z,17.43
2022-12-17T10:16:25.946Z,12.27
2022-12-17T10:18:54.609Z,13.40
2022-12-17T10:21:24.268Z,18.20
2022-12-17T10:24:18.449Z,18.30
2022-12-17T10:27:11.010Z,16.23
2022-12-17T10:29:45.522Z,16.23
2022-12-17T10:32:20.208Z,12.40
2022-12-17T10:34:48.981Z,14.43
2022-12-17T10:37:19.561Z,12.83
2022-12-17T10:39:54.747Z,18.30
2022-12-17T10:42:23.398Z,17.57
2022-12-17T10:44:50.641Z,14.03
2022-12-17T10:47:19.014Z,15.47
2022-12-17T10:49:46.216Z,18.83
2022-12-17T10:52:23.951Z,19.37
2022-12-17T10:54:58.465Z,18.03
2022-12-17T10:57:30.244Z,11.63
2022-12-17T10:59:57.478Z,17.40
2022-12-17T11:02:27.747Z,12.63
2022-12-17T11:04:55.313Z,14.20
2022-12-17T11:07:25.566Z,17.47
2022-12-17T11:09:54.061Z,15.53
2022-12-17T11:12:28.641Z,13.90
2022-12-17T11:14:59.941Z,17.00
2022-12-17T11:17:27.620Z,16.97
2022-12-17T11:19:57.421Z,17.53
2022-12-17T11:22:29.805Z,17.17
2022-12-17T11:24:59.915Z,14.97
2022-12-17T11:27:29.594Z,16.57
2022-12-17T11:29:56.972Z,16.87
2022-12-17T11:32:36.929Z,16.63
2022-12-17T11:35:06.199Z,15.83
2022-12-17T11:37:38.592Z,16.50
2022-12-17T11:40:15.617Z,15.13
2022-12-17T11:42:44.801Z,15.27
2022-12-17T11:45:20.622Z,16.13
2022-12-17T11:47:58.925Z,15.43
2022-12-17T11:50:29.027Z,13.87
2022-12-17T11:53:02.653Z,14.00
2022-12-17T11:55:35.400Z,13.87
2022-12-17T11:58:04.897Z,15.40
2022-12-17T12:00:34.933Z,14.20
2022-12-17T12:03:09.814Z,13.93
2022-12-17T12:05:42.872Z,14.37
2022-12-17T12:08:18.927Z,13.53
2022-12-17T12:10:48.964Z,15.17
2022-12-17T12:13:19.691Z,15.03
2022-12-17T12:15:52.906Z,14.33
2022-12-17T12:18:25.014Z,9.33
2022-12-17T12:21:01.202Z,13.83
2022-12-17T12:23:35.873Z,10.83
2022-12-17T12:26:07.411Z,11.40
2022-12-17T12:28:38.327Z,13.07
2022-12-17T12:31:10.315Z,14.40
2022-12-17T12:33:46.356Z,14.90
2022-12-17T12:36:15.819Z,11.27
2022-12-17T12:38:46.616Z,8.73
2022-12-17T12:41:17.344Z,14.77
2022-12-17T12:43:47.521Z,15.30
2022-12-17T12:46:17.307Z,14.00
2022-12-17T12:48:47.606Z,14.73
2022-12-17T12:51:17.723Z,10.43
2022-12-17T12:53:56.897Z,13.00
2022-12-17T12:56:25.898Z,12.37
2022-12-17T12:59:15.102Z,14.37
2022-12-17T13:02:01.198Z,11.07
2022-12-17T13:04:30.193Z,13.60
2022-12-17T13:06:57.942Z,14.20
2022-12-17T13:09:35.348Z,15.33
2022-12-17T13:12:21.272Z,17.77
2022-12-17T13:14:51.501Z,17.83
2022-12-17T13:17:29.582Z,15.13
2022-12-17T13:20:01.056Z,16.27
2022-12-17T13:22:29.229Z,11.37
2022-12-17T13:25:09.638Z,16.17
2022-12-17T13:27:43.577Z,16.33
2022-12-17T13:30:33.316Z,15.70
2022-12-17T13:33:12.763Z,16.20
2022-12-17T13:35:43.439Z,14.27
2022-12-17T13:38:13.182Z,14.83
2022-12-17T13:40:44.297Z,11.60
2022-12-17T13:43:16.910Z,13.30
2022-12-17T13:45:44.402Z,16.27
2022-12-17T13:48:20.613Z,17.47
2022-12-17T13:50:53.909Z,16.53
2022-12-17T13:53:22.019Z,15.07
2022-12-17T13:55:54.208Z,17.60
2022-12-17T13:58:22.772Z,15.67
2022-12-17T14:00:50.099Z,16.63
2022-12-17T14:03:28.388Z,16.13
2022-12-17T14:06:05.274Z,17.73
2022-12-17T14:08:33.373Z,15.10
2022-12-17T14:11:06.659Z,16.87
2022-12-17T14:13:34.863Z,16.30
2022-12-17T14:16:02.141Z,18.10
2022-12-17T14:18:29.495Z,18.63
2022-12-17T14:20:56.802Z,17.13
2022-12-17T14:23:27.372Z,15.20
2022-12-17T14:25:54.748Z,17.70
2022-12-17T14:28:24.759Z,12.57
2022-12-17T14:31:24.977Z,19.10
2022-12-17T14:33:49.534Z,16.23
2022-12-17T14:36:21.281Z,17.43
2022-12-17T14:38:54.556Z,18.03
2022-12-17T14:41:22.646Z,15.67
2022-12-17T14:43:56.916Z,17.93
2022-12-17T14:46:24.223Z,18.60
2022-12-17T14:48:54.410Z,15.50
2022-12-17T14:51:31.723Z,17.97
2022-12-17T14:54:17.626Z,13.60
2022-12-17T14:56:45.424Z,16.57
2022-12-17T14:59:31.372Z,15.90
2022-12-17T15:02:00.477Z,18.27
2022-12-17T15:04:27.869Z,16.90
2022-12-17T15:06:55.624Z,18.87
2022-12-17T15:09:22.918Z,17.70
2022-12-17T15:11:50.173Z,17.87
2022-12-17T15:14:17.461Z,19.17
2022-12-17T15:16:46.179Z,19.20
2022-12-17T15:19:13.504Z,19.37
2022-12-17T15:21:41.041Z,19.50
2022-12-17T15:24:11.032Z,18.90
2022-12-17T15:26:38.298Z,19.67
2022-12-17T15:29:05.618Z,17.17
2022-12-17T15:31:35.628Z,10.73
2022-12-17T15:34:04.990Z,20.93
2022-12-17T15:36:32.446Z,21.30
2022-12-17T15:38:59.868Z,16.30
2022-12-17T15:41:27.870Z,20.47
2022-12-17T15:43:55.142Z,16.63
2022-12-17T15:46:22.717Z,20.83
2022-12-17T15:48:50.819Z,21.37
2022-12-17T15:51:20.128Z,23.33
2022-12-17T15:53:47.668Z,18.13
2022-12-17T15:56:19.968Z,24.43
2022-12-17T15:58:47.234Z,23.33
2022-12-17T16:01:14.578Z,23.77
2022-12-17T16:03:41.966Z,22.93
2022-12-17T16:06:09.297Z,22.27
2022-12-17T16:08:39.583Z,20.90
2022-12-17T16:11:07.911Z,19.33
2022-12-17T16:13:35.092Z,24.57
2022-12-17T16:16:04.318Z,19.70
2022-12-17T16:18:31.703Z,25.13
2022-12-17T16:21:02.166Z,22.90
2022-12-17T16:23:29.470Z,26.87
2022-12-17T16:25:58.451Z,28.73
2022-12-17T16:28:27.749Z,25.67
2022-12-17T16:30:58.703Z,28.57
2022-12-17T16:33:27.897Z,25.57
2022-12-17T16:35:58.352Z,27.43
2022-12-17T16:38:25.592Z,27.43
2022-12-17T16:40:54.877Z,24.73
2022-12-17T16:43:23.571Z,24.93
2022-12-17T16:45:51.605Z,21.30
2022-12-17T16:48:19.295Z,27.00
2022-12-17T16:50:46.995Z,27.33
2022-12-17T16:53:14.608Z,19.40
2022-12-17T16:55:42.413Z,23.30
2022-12-17T16:58:12.632Z,25.40
2022-12-17T17:00:41.305Z,27.63
2022-12-17T17:03:08.936Z,27.50
2022-12-17T17:05:37.561Z,26.07
2022-12-17T17:08:05.394Z,24.27
2022-12-17T17:10:35.518Z,28.03
2022-12-17T17:13:02.828Z,26.00
2022-12-17T17:15:30.129Z,18.27
2022-12-17T17:18:01.556Z,27.90
2022-12-17T17:20:29.556Z,20.40
2022-12-17T17:22:56.732Z,32.97
2022-12-17T17:25:34.477Z,34.20
2022-12-17T17:28:11.459Z,30.57
2022-12-17T17:30:38.731Z,29.63
2022-12-17T17:33:07.310Z,28.87
2022-12-17T17:35:34.546Z,31.50
2022-12-17T17:38:01.800Z,19.93
2022-12-17T17:40:28.991Z,30.87
2022-12-17T17:42:56.212Z,33.17
2022-12-17T17:45:23.457Z,32.50
2022-12-17T17:47:50.794Z,25.60
2022-12-17T17:50:19.551Z,31.57
2022-12-17T17:52:46.808Z,31.63
2022-12-17T17:55:14.171Z,24.47
2022-12-17T17:57:41.721Z,29.27
2022-12-17T18:00:09.630Z,22.77
2022-12-17T18:02:37.431Z,32.70
2022-12-17T18:05:05.185Z,32.43
2022-12-17T18:07:33.790Z,34.90
2022-12-17T18:10:01.040Z,31.00
2022-12-17T18:12:28.375Z,35.77
2022-12-17T18:17:43.671Z,33.50
2022-12-17T18:20:12.335Z,29.40
2022-12-17T18:22:41.099Z,33.73
2022-12-17T18:25:08.536Z,30.07
2022-12-17T18:27:35.863Z,32.03
2022-12-17T18:30:03.121Z,27.30
2022-12-17T18:32:30.391Z,34.93
2022-12-17T18:34:57.712Z,35.03
2022-12-17T18:37:24.975Z,35.33
2022-12-17T18:39:53.618Z,32.77
2022-12-17T18:42:20.869Z,34.03
2022-12-17T18:44:48.093Z,31.50
2022-12-17T18:47:15.435Z,33.27
2022-12-17T18:49:42.705Z,30.97
2022-12-17T18:52:16.224Z,31.20
2022-12-17T18:54:44.170Z,33.90
2022-12-17T18:57:13.284Z,34.93
2022-12-17T18:59:41.305Z,25.90
2022-12-17T19:02:10.838Z,34.57
2022-12-17T19:04:38.382Z,37.43
2022-12-17T19:07:05.689Z,35.43
2022-12-17T19:09:33.522Z,24.70
2022-12-17T19:12:00.794Z,27.57
2022-12-17T19:14:29.500Z,31.97
2022-12-17T19:16:57.073Z,27.13
2022-12-17T19:19:24.829Z,35.17
2022-12-17T19:21:53.586Z,30.40
2022-12-17T19:24:21.194Z,35.00
2022-12-17T19:26:48.891Z,31.00
2022-12-17T19:29:16.702Z,24.73
2022-12-17T19:31:45.421Z,22.23
2022-12-17T19:34:13.881Z,29.30
2022-12-17T19:36:41.203Z,28.20
2022-12-17T19:39:09.020Z,34.53
2022-12-17T19:41:36.335Z,29.57
2022-12-17T19:44:04.389Z,30.87
2022-12-17T19:46:32.139Z,30.47
2022-12-17T19:49:00.869Z,32.20
2022-12-17T19:51:29.229Z,31.70
2022-12-17T19:53:56.846Z,32.83
2022-12-17T19:56:25.125Z,33.57
2022-12-17T19:58:54.381Z,30.53
2022-12-17T20:01:23.082Z,29.80
2022-12-17T20:03:50.873Z,31.60
2022-12-17T20:06:20.481Z,29.67
2022-12-17T20:08:47.763Z,30.90
2022-12-17T20:11:16.385Z,29.53
2022-12-17T20:13:43.623Z,32.80
2022-12-17T20:16:10.957Z,30.70
2022-12-17T20:18:41.316Z,27.03
2022-12-17T20:21:08.775Z,25.37
2022-12-17T20:23:40.326Z,24.17
2022-12-17T20:26:09.472Z,30.67
2022-12-17T20:28:37.322Z,23.17
2022-12-17T20:31:05.245Z,22.80
2022-12-17T20:33:32.922Z,25.63
2022-12-17T20:36:03.196Z,26.63
2022-12-17T20:38:30.459Z,26.47
2022-12-17T20:40:59.134Z,24.33
2022-12-17T20:43:26.400Z,22.13
2022-12-17T20:45:54.239Z,24.03
2022-12-17T20:48:21.679Z,21.90
2022-12-17T20:50:49.071Z,26.10
2022-12-17T20:53:16.336Z,27.57
2022-12-17T20:55:43.627Z,28.60
2022-12-17T20:58:12.427Z,31.50
2022-12-17T21:00:39.711Z,26.50
2022-12-17T21:03:07.457Z,28.50
2022-12-17T21:05:35.517Z,31.13
2022-12-17T21:08:02.832Z,29.60
2022-12-17T21:10:30.094Z,23.07
2022-12-17T21:12:57.369Z,29.53
2022-12-17T21:15:26.011Z,24.67
2022-12-17T21:17:55.895Z,23.10
2022-12-17T21:20:23.227Z,33.50
2022-12-17T21:22:50.706Z,27.03
2022-12-17T21:25:18.090Z,33.30
2022-12-17T21:27:45.356Z,28.40
2022-12-17T21:30:13.036Z,23.80
2022-12-17T21:32:44.994Z,31.17
2022-12-17T21:35:12.929Z,29.67
2022-12-17T21:37:40.193Z,25.80
2022-12-17T21:40:08.803Z,31.47
2022-12-17T21:42:36.059Z,32.17
2022-12-17T21:45:03.388Z,25.70
2022-12-17T21:47:30.914Z,31.13
2022-12-17T21:49:59.510Z,30.87
2022-12-17T21:52:26.825Z,28.27
2022-12-17T21:54:54.104Z,31.27
2022-12-17T21:57:21.330Z,31.93
2022-12-17T21:59:48.634Z,35.33
2022-12-17T22:02:16.907Z,26.87
2022-12-17T22:04:44.485Z,20.87
2022-12-17T22:07:14.955Z,19.27
2022-12-17T22:09:57.542Z,29.70
2022-12-17T22:12:33.940Z,34.67
2022-12-17T22:15:01.213Z,27.80
2022-12-17T22:17:29.079Z,26.97
2022-12-17T22:19:56.344Z,31.10
2022-12-17T22:22:24.901Z,32.00
2022-12-17T22:24:52.153Z,33.53
2022-12-17T22:27:22.132Z,29.53
2022-12-17T22:29:49.402Z,25.10
2022-12-17T22:32:16.655Z,28.67
2022-12-17T22:36:34.504Z,26.77
2022-12-17T22:41:58.339Z,24.83
2022-12-17T22:44:12.741Z,26.70
2022-12-17T22:44:38.096Z,28.40
2022-12-17T22:45:59.555Z,33.50
2022-12-17T22:48:30.627Z,27.07
2022-12-17T22:51:06.180Z,32.47
2022-12-17T22:53:38.909Z,33.40
2022-12-17T22:56:14.623Z,27.63
2022-12-17T22:58:53.698Z,29.97
2022-12-17T23:01:23.097Z,30.80
2022-12-17T23:03:50.745Z,26.70
2022-12-17T23:06:18.905Z,30.37
2022-12-17T23:08:47.507Z,32.53
2022-12-17T23:11:15.677Z,26.57
2022-12-17T23:13:46.578Z,28.73
2022-12-17T23:16:14.244Z,26.87
2022-12-17T23:18:41.584Z,28.87
2022-12-17T23:21:09.223Z,30.47
2022-12-17T23:23:36.812Z,23.13
2022-12-17T23:26:09.859Z,23.70
2022-12-17T23:28:37.130Z,27.57
2022-12-17T23:31:08.577Z,22.13
2022-12-17T23:33:36.115Z,21.03
2022-12-17T23:36:04.444Z,26.27
2022-12-17T23:38:31.679Z,27.10
2022-12-17T23:41:02.604Z,25.57
2022-12-17T23:43:31.524Z,27.90
2022-12-17T23:45:58.813Z,27.67
2022-12-17T23:48:26.147Z,28.83
2022-12-17T23:50:53.389Z,26.70
2022-12-17T23:53:20.673Z,29.20
2022-12-17T23:55:50.059Z,29.23
2022-12-17T23:58:17.277Z,24.50
